createdAt,value
2022-10-01T00:01:22.938Z,11.16
2022-10-01T00:06:30.355Z,11.14
2022-10-01T00:11:37.236Z,11.15
2022-10-01T00:16:44.117Z,11.19
2022-10-01T00:21:51.224Z,11.21
2022-10-01T00:26:58.731Z,11.22
2022-10-01T00:32:06.108Z,11.20
2022-10-01T00:37:13.862Z,11.22
2022-10-01T00:42:24.462Z,11.28
2022-10-01T00:47:35.019Z,11.28
2022-10-01T00:52:44.999Z,11.20
2022-10-01T00:57:52.988Z,11.19
2022-10-01T01:03:00.244Z,11.19
2022-10-01T01:08:08.978Z,11.16
2022-10-01T01:13:25.343Z,11.02
2022-10-01T01:18:40.466Z,10.91
2022-10-01T01:24:30.957Z,10.84
2022-10-01T01:29:44.498Z,10.79
2022-10-01T01:34:55.600Z,10.77
2022-10-01T01:40:05.460Z,10.78
2022-10-01T01:45:16.015Z,10.77
2022-10-01T01:50:25.545Z,10.75
2022-10-01T01:55:33.476Z,10.77
2022-10-01T02:00:41.518Z,10.87
2022-10-01T02:06:01.331Z,10.96
2022-10-01T02:11:21.693Z,11.04
2022-10-01T02:16:36.372Z,11.02
2022-10-01T02:21:50.753Z,10.94
2022-10-01T02:26:59.930Z,10.87
2022-10-01T02:32:07.658Z,10.81
2022-10-01T02:37:15.703Z,10.76
2022-10-01T02:42:25.067Z,10.75
2022-10-01T02:47:35.966Z,10.76
2022-10-01T02:52:47.252Z,10.72
2022-10-01T02:57:54.863Z,10.69
2022-10-01T03:03:01.871Z,10.68
2022-10-01T03:08:08.893Z,10.67
2022-10-01T03:13:16.482Z,10.68
2022-10-01T03:18:23.570Z,10.66
2022-10-01T03:23:30.571Z,10.63
2022-10-01T03:28:37.468Z,10.63
2022-10-01T03:33:42.833Z,10.64
2022-10-01T03:38:49.808Z,10.63
2022-10-01T03:44:00.422Z,10.60
2022-10-01T03:49:08.136Z,10.61
2022-10-01T03:54:15.285Z,10.68
2022-10-01T03:59:22.334Z,10.75
2022-10-01T04:04:29.491Z,10.71
2022-10-01T04:09:37.762Z,10.69
2022-10-01T04:14:44.859Z,10.75
2022-10-01T04:19:51.659Z,10.77
2022-10-01T04:24:56.924Z,10.77
2022-10-01T04:30:03.920Z,10.82
2022-10-01T04:35:11.780Z,10.82
2022-10-01T04:40:19.075Z,10.81
2022-10-01T04:45:26.564Z,10.79
2022-10-01T04:50:33.866Z,10.83
2022-10-01T04:55:41.177Z,10.87
2022-10-01T05:00:49.402Z,10.93
2022-10-01T05:05:56.604Z,10.98
2022-10-01T05:11:03.474Z,11.03
2022-10-01T05:16:09.069Z,11.05
2022-10-01T05:21:16.076Z,11.06
2022-10-01T05:26:23.402Z,11.09
2022-10-01T05:31:30.250Z,11.14
2022-10-01T05:36:37.382Z,11.17
2022-10-01T05:41:44.398Z,11.20
2022-10-01T05:46:51.590Z,11.24
2022-10-01T05:51:58.931Z,11.29
2022-10-01T05:57:06.174Z,11.32
2022-10-01T06:02:13.408Z,11.35
2022-10-01T06:07:20.628Z,11.39
2022-10-01T06:12:27.838Z,11.43
2022-10-01T06:17:35.354Z,11.48
2022-10-01T06:22:43.165Z,11.51
2022-10-01T06:27:58.321Z,11.51
2022-10-01T06:33:07.390Z,11.55
2022-10-01T06:38:14.810Z,11.59
2022-10-01T06:43:21.936Z,11.61
2022-10-01T06:48:29.304Z,11.63
2022-10-01T06:53:36.301Z,11.65
2022-10-01T06:58:43.609Z,11.67
2022-10-01T07:03:51.326Z,11.71
2022-10-01T07:08:58.738Z,11.74
2022-10-01T07:14:06.076Z,11.74
2022-10-01T07:19:13.271Z,11.75
2022-10-01T07:24:20.971Z,11.80
2022-10-01T07:29:27.964Z,11.83
2022-10-01T07:34:35.168Z,11.83
2022-10-01T07:39:42.278Z,11.89
2022-10-01T07:44:49.892Z,11.96
2022-10-01T07:49:57.508Z,12.01
2022-10-01T07:55:11.122Z,12.04
2022-10-01T08:00:19.697Z,12.05
2022-10-01T08:05:29.261Z,12.08
2022-10-01T08:10:38.297Z,12.10
2022-10-01T08:15:50.230Z,12.11
2022-10-01T08:20:57.256Z,12.11
2022-10-01T08:26:06.179Z,12.12
2022-10-01T08:31:13.663Z,12.14
2022-10-01T08:36:21.091Z,12.20
2022-10-01T08:41:43.841Z,12.23
2022-10-01T08:46:51.670Z,12.26
2022-10-01T08:52:04.850Z,12.30
2022-10-01T08:57:17.373Z,12.36
2022-10-01T09:02:27.242Z,12.40
2022-10-01T09:07:48.822Z,12.43
2022-10-01T09:13:16.038Z,12.43
2022-10-01T09:18:32.299Z,12.47
2022-10-01T09:23:54.643Z,12.54
2022-10-01T09:29:04.713Z,12.60
2022-10-01T09:34:17.219Z,12.65
2022-10-01T09:39:29.950Z,12.72
2022-10-01T09:44:37.886Z,12.82
2022-10-01T09:49:46.432Z,12.88
2022-10-01T09:54:59.053Z,12.94
2022-10-01T10:00:11.183Z,13.01
2022-10-01T10:05:20.557Z,13.05
2022-10-01T10:10:35.827Z,13.09
2022-10-01T10:15:51.919Z,13.08
2022-10-01T10:21:00.521Z,13.08
2022-10-01T10:26:09.706Z,13.10
2022-10-01T10:31:20.693Z,13.14
2022-10-01T10:36:31.082Z,13.24
2022-10-01T10:41:39.019Z,13.31
2022-10-01T10:46:46.467Z,13.36
2022-10-01T10:51:55.773Z,13.40
2022-10-01T10:57:18.261Z,13.43
2022-10-01T11:02:26.571Z,13.44
2022-10-01T11:07:34.549Z,13.43
2022-10-01T11:12:56.730Z,13.43
2022-10-01T11:18:17.529Z,13.43
2022-10-01T11:23:50.943Z,13.46
2022-10-01T11:29:15.556Z,13.50
2022-10-01T11:34:54.159Z,13.54
2022-10-01T11:40:05.288Z,13.57
2022-10-01T11:45:21.614Z,13.61
2022-10-01T11:50:31.390Z,13.65
2022-10-01T11:56:00.285Z,13.67
2022-10-01T12:01:13.062Z,13.72
2022-10-01T12:06:34.234Z,13.74
2022-10-01T12:11:48.312Z,13.72
2022-10-01T12:17:02.318Z,13.71
2022-10-01T12:22:16.262Z,13.70
2022-10-01T12:27:38.012Z,13.73
2022-10-01T12:33:04.968Z,13.73
2022-10-01T12:38:25.663Z,13.78
2022-10-01T12:43:48.386Z,13.84
2022-10-01T12:49:05.561Z,13.90
2022-10-01T12:54:31.291Z,13.85
2022-10-01T12:59:58.043Z,13.79
2022-10-01T13:05:24.506Z,13.80
2022-10-01T13:10:45.521Z,13.84
2022-10-01T13:16:01.089Z,13.88
2022-10-01T13:21:15.912Z,13.90
2022-10-01T13:26:32.817Z,13.93
2022-10-01T13:31:40.152Z,13.99
2022-10-01T13:36:47.260Z,14.03
2022-10-01T13:41:59.043Z,14.05
2022-10-01T13:47:10.145Z,14.05
2022-10-01T13:52:24.565Z,14.07
2022-10-01T13:57:36.420Z,14.08
2022-10-01T14:02:58.593Z,14.09
2022-10-01T14:08:15.470Z,14.04
2022-10-01T14:13:40.591Z,14.01
2022-10-01T14:18:51.160Z,14.03
2022-10-01T14:24:06.764Z,14.06
2022-10-01T14:29:27.672Z,14.04
2022-10-01T14:34:55.041Z,14.03
2022-10-01T14:40:19.845Z,14.02
2022-10-01T14:45:27.160Z,14.04
2022-10-01T14:50:35.383Z,14.06
2022-10-01T14:55:42.634Z,14.04
2022-10-01T15:00:52.959Z,14.01
2022-10-01T15:06:11.923Z,13.93
2022-10-01T15:11:22.839Z,13.87
2022-10-01T15:16:31.800Z,13.86
2022-10-01T15:21:41.346Z,13.84
2022-10-01T15:26:49.984Z,13.82
2022-10-01T15:31:59.666Z,13.83
2022-10-01T15:37:07.589Z,13.72
2022-10-01T15:42:30.614Z,13.52
2022-10-01T15:47:38.844Z,13.38
2022-10-01T15:53:00.586Z,13.33
2022-10-01T15:58:18.842Z,13.30
2022-10-01T16:03:29.520Z,13.31
2022-10-01T16:08:50.445Z,13.32
2022-10-01T16:14:22.387Z,13.28
2022-10-01T16:19:33.622Z,13.23
2022-10-01T16:24:46.900Z,13.20
2022-10-01T16:29:59.103Z,13.18
2022-10-01T16:35:24.191Z,13.16
2022-10-01T16:40:33.565Z,13.14
2022-10-01T16:45:42.900Z,13.07
2022-10-01T16:50:53.848Z,12.99
2022-10-01T16:56:00.738Z,12.95
2022-10-01T17:01:10.952Z,12.93
2022-10-01T17:06:18.674Z,12.91
2022-10-01T17:11:30.225Z,12.89
2022-10-01T17:16:37.542Z,12.85
2022-10-01T17:21:45.915Z,12.84
2022-10-01T17:26:53.017Z,12.85
2022-10-01T17:32:00.097Z,12.87
2022-10-01T17:37:07.227Z,12.88
2022-10-01T17:42:16.849Z,12.86
2022-10-01T17:47:24.198Z,12.88
2022-10-01T17:52:33.604Z,12.88
2022-10-01T17:57:40.643Z,12.92
2022-10-01T18:02:47.966Z,12.94
2022-10-01T18:07:55.154Z,12.90
2022-10-01T18:13:02.201Z,12.85
2022-10-01T18:19:31.074Z,12.82
2022-10-01T18:23:36.850Z,12.85
2022-10-01T18:28:43.950Z,12.79
2022-10-01T18:33:53.800Z,12.69
2022-10-01T18:39:22.520Z,12.64
2022-10-01T18:44:29.516Z,12.68
2022-10-01T18:50:18.967Z,12.72
2022-10-01T18:55:40.573Z,12.74
2022-10-01T19:00:53.826Z,12.71
2022-10-01T19:06:23.437Z,12.61
2022-10-01T19:11:40.514Z,12.54
2022-10-01T19:16:51.338Z,12.47
2022-10-01T19:22:04.056Z,12.42
2022-10-01T19:27:25.911Z,12.19
2022-10-01T19:32:40.860Z,11.82
2022-10-01T19:37:52.782Z,11.48
2022-10-01T19:43:08.081Z,11.17
2022-10-01T19:48:20.426Z,10.93
2022-10-01T19:53:30.352Z,10.73
2022-10-01T19:58:37.427Z,10.56
2022-10-01T20:03:50.765Z,10.44
2022-10-01T20:09:02.167Z,10.30
2022-10-01T20:14:44.159Z,10.20
2022-10-01T20:20:00.301Z,10.10
2022-10-01T20:25:15.502Z,10.01
2022-10-01T20:30:24.702Z,9.96
2022-10-01T20:35:38.434Z,9.92
2022-10-01T20:40:54.650Z,9.88
2022-10-01T20:46:07.856Z,9.86
2022-10-01T20:51:20.950Z,9.86
2022-10-01T20:56:33.467Z,9.83
2022-10-01T21:01:46.501Z,9.79
2022-10-01T21:06:57.714Z,9.78
2022-10-01T21:12:08.503Z,9.76
2022-10-01T21:17:38.916Z,9.76
2022-10-01T21:23:01.506Z,9.76
2022-10-01T21:28:27.978Z,9.74
2022-10-01T21:33:45.994Z,9.74
2022-10-01T21:39:01.783Z,9.76
2022-10-01T21:44:32.221Z,9.74
2022-10-01T21:49:47.318Z,9.74
2022-10-01T21:55:19.783Z,9.75
2022-10-01T22:00:29.280Z,9.74
2022-10-01T22:05:45.519Z,9.74
2022-10-01T22:10:57.260Z,9.76
2022-10-01T22:16:09.602Z,9.77
2022-10-01T22:21:21.185Z,9.77
2022-10-01T22:26:31.668Z,9.78
2022-10-01T22:31:41.059Z,9.79
2022-10-01T22:36:54.020Z,9.80
2022-10-01T22:42:06.889Z,9.82
2022-10-01T22:47:35.847Z,9.78
2022-10-01T22:52:53.756Z,9.75
2022-10-01T22:58:22.757Z,9.74
2022-10-01T23:03:41.277Z,9.71
2022-10-01T23:08:55.080Z,9.69
2022-10-01T23:14:15.474Z,9.69
2022-10-01T23:19:38.331Z,9.68
2022-10-01T23:24:56.688Z,9.70
2022-10-01T23:30:11.869Z,9.70
2022-10-01T23:35:22.195Z,9.70
2022-10-01T23:40:32.976Z,9.74
2022-10-01T23:45:45.030Z,9.76
2022-10-01T23:50:59.838Z,9.77
2022-10-01T23:56:39.245Z,9.77
